Time;durP1;ratioP1;P1;durP2;ratioP2;P2;SDS_P1;SDS_P2;PMS_P1;PMS_P2;Temp;Humidity;BMP_temperature;BMP_pressure;BME280_temperature;BME280_humidity;BME280_pressure;Samples;Min_cycle;Max_cycle;Signal;HPM_P1;HPM_P2
2022/03/15 00:00:27;;;;;;;38.95;9.05;;;14.10;99.90;;;;;;5052756;28;20044;-74
2022/03/15 00:02:54;;;;;;;41.95;9.30;;;14.10;99.90;;;;;;5052490;28;20037;-72
2022/03/15 00:05:21;;;;;;;31.58;8.15;;;14.10;99.90;;;;;;5053468;28;20028;-73
2022/03/15 00:07:47;;;;;;;39.38;9.93;;;14.10;99.90;;;;;;5036374;28;20215;-73
2022/03/15 00:10:15;;;;;;;34.58;8.40;;;14.10;99.90;;;;;;5039135;28;20116;-74
2022/03/15 00:12:42;;;;;;;30.67;8.07;;;14.10;99.90;;;;;;5073236;28;20048;-73
2022/03/15 00:15:09;;;;;;;47.95;8.60;;;14.10;99.90;;;;;;5057914;28;20131;-74
2022/03/15 00:17:37;;;;;;;37.55;9.25;;;14.10;99.90;;;;;;5063050;28;20080;-74
2022/03/15 00:20:05;;;;;;;35.55;7.75;;;14.10;99.90;;;;;;5034144;28;20048;-72
2022/03/15 00:22:35;;;;;;;33.22;8.63;;;14.10;99.90;;;;;;5038827;28;20522;-73
2022/03/15 00:25:03;;;;;;;33.90;8.40;;;14.10;99.90;;;;;;5057267;28;20029;-73
2022/03/15 00:27:29;;;;;;;30.73;7.78;;;14.10;99.90;;;;;;5075053;28;20051;-75
2022/03/15 00:29:55;;;;;;;34.47;8.57;;;14.10;99.90;;;;;;5057549;28;20081;-72
2022/03/15 00:32:21;;;;;;;34.45;8.18;;;14.10;99.90;;;;;;5057029;28;20041;-71
2022/03/15 00:34:47;;;;;;;39.83;8.77;;;14.10;99.90;;;;;;5057602;28;20163;-73
2022/03/15 00:37:13;;;;;;;27.98;7.05;;;14.10;99.90;;;;;;5039823;28;20065;-74
2022/03/15 00:39:40;;;;;;;24.17;7.43;;;14.10;99.90;;;;;;5036584;28;20033;-73
2022/03/15 00:42:07;;;;;;;30.08;7.65;;;14.10;99.90;;;;;;5046123;28;20086;-73
2022/03/15 00:44:33;;;;;;;32.05;8.05;;;14.10;99.90;;;;;;5056559;28;20053;-73
2022/03/15 00:46:58;;;;;;;24.10;6.60;;;14.20;99.90;;;;;;5040663;28;20052;-74
2022/03/15 00:49:25;;;;;;;33.88;7.88;;;14.20;99.90;;;;;;5057448;28;20044;-73
2022/03/15 00:51:51;;;;;;;29.60;7.50;;;14.20;99.90;;;;;;5040985;28;20041;-73
2022/03/15 00:54:17;;;;;;;32.30;7.22;;;14.20;99.90;;;;;;5052615;28;20051;-73
2022/03/15 00:56:43;;;;;;;33.85;7.75;;;14.20;99.90;;;;;;5055213;28;20124;-73
2022/03/15 00:59:09;;;;;;;27.52;7.53;;;14.10;99.90;;;;;;5039728;28;20040;-73
2022/03/15 01:01:36;;;;;;;23.42;6.53;;;14.10;99.90;;;;;;5055181;28;20039;-74
2022/03/15 01:04:03;;;;;;;35.53;7.68;;;14.20;99.90;;;;;;5060009;28;20086;-72
2022/03/15 01:06:29;;;;;;;38.45;7.90;;;14.20;99.90;;;;;;5058897;28;20529;-72
2022/03/15 01:08:56;;;;;;;32.33;7.53;;;14.10;99.90;;;;;;5056476;28;20033;-73
2022/03/15 01:11:22;;;;;;;29.25;7.82;;;14.20;99.90;;;;;;5056052;28;20132;-72
2022/03/15 01:13:48;;;;;;;31.85;7.95;;;14.20;99.90;;;;;;5056165;28;20180;-73
2022/03/15 01:16:14;;;;;;;31.13;8.52;;;14.20;99.90;;;;;;5036413;28;20441;-72
2022/03/15 01:18:41;;;;;;;33.00;7.13;;;14.20;99.90;;;;;;5055286;28;20753;-73
2022/03/15 01:21:07;;;;;;;26.50;6.93;;;14.20;99.90;;;;;;5054376;28;20048;-73
2022/03/15 01:23:33;;;;;;;32.40;8.30;;;14.20;99.90;;;;;;5057206;28;20374;-72
2022/03/15 01:26:00;;;;;;;23.23;6.57;;;14.20;99.90;;;;;;5029689;28;20040;-72
2022/03/15 01:28:29;;;;;;;25.38;6.53;;;14.20;99.90;;;;;;5053874;28;20053;-73
2022/03/15 01:30:55;;;;;;;22.45;6.80;;;14.20;99.90;;;;;;5053970;28;20090;-72
2022/03/15 01:33:21;;;;;;;23.25;5.90;;;14.20;99.90;;;;;;5051232;28;20805;-73
2022/03/15 01:35:47;;;;;;;24.42;6.72;;;14.20;99.90;;;;;;5052701;28;20526;-72
2022/03/15 01:38:13;;;;;;;24.00;6.45;;;14.20;99.90;;;;;;5052480;28;20037;-73
2022/03/15 01:40:41;;;;;;;23.13;6.18;;;14.20;99.90;;;;;;5051752;28;20024;-74
2022/03/15 01:43:07;;;;;;;22.73;6.53;;;14.20;99.90;;;;;;5051397;28;20484;-74
2022/03/15 01:45:37;;;;;;;22.30;6.63;;;14.10;99.90;;;;;;5045183;28;20044;-72
2022/03/15 01:48:04;;;;;;;18.27;4.97;;;14.10;99.90;;;;;;5058625;28;20064;-72
2022/03/15 01:50:30;;;;;;;22.10;5.93;;;14.10;99.90;;;;;;5067469;28;20127;-73
2022/03/15 01:52:57;;;;;;;23.38;5.60;;;14.10;99.90;;;;;;5055966;28;20040;-72
2022/03/15 01:55:23;;;;;;;17.50;5.38;;;14.10;99.90;;;;;;5057352;28;20044;-73
2022/03/15 01:57:50;;;;;;;22.90;5.45;;;14.10;99.90;;;;;;5047903;28;20040;-73
2022/03/15 02:00:17;;;;;;;23.73;5.47;;;14.10;99.90;;;;;;5054483;28;20632;-73
2022/03/15 02:02:43;;;;;;;24.55;5.47;;;14.10;99.90;;;;;;5069968;28;20087;-73
2022/03/15 02:05:10;;;;;;;20.65;5.45;;;14.10;99.90;;;;;;5054445;28;20036;-73
2022/03/15 02:07:36;;;;;;;19.90;5.30;;;14.10;99.90;;;;;;5055661;28;20068;-72
2022/03/15 02:10:03;;;;;;;16.67;4.82;;;14.10;99.90;;;;;;5052591;28;20441;-73
2022/03/15 02:12:29;;;;;;;25.75;6.15;;;14.00;99.90;;;;;;5060905;28;20091;-73
2022/03/15 02:15:01;;;;;;;19.30;5.18;;;14.10;99.90;;;;;;5061335;28;20040;-72
2022/03/15 02:17:29;;;;;;;22.10;5.32;;;14.10;99.90;;;;;;5045008;28;20048;-73
2022/03/15 02:19:55;;;;;;;22.55;5.43;;;14.10;99.90;;;;;;5070630;28;20069;-73
2022/03/15 02:22:25;;;;;;;14.20;5.28;;;14.10;99.90;;;;;;5052565;28;20025;-72
2022/03/15 02:24:52;;;;;;;18.35;5.70;;;14.10;99.90;;;;;;5064048;28;20029;-72
2022/03/15 02:27:23;;;;;;;14.95;4.43;;;14.10;99.90;;;;;;5051649;28;20029;-72
2022/03/15 02:29:50;;;;;;;14.63;4.40;;;14.10;99.90;;;;;;5051433;28;20037;-73
2022/03/15 02:32:15;;;;;;;15.20;4.75;;;14.10;99.90;;;;;;5053092;28;20703;-72
2022/03/15 02:34:41;;;;;;;18.00;5.10;;;14.10;99.90;;;;;;5058522;28;20043;-72
2022/03/15 02:37:08;;;;;;;18.00;5.35;;;14.10;99.90;;;;;;5055269;28;20093;-72
2022/03/15 02:39:35;;;;;;;15.55;4.85;;;14.10;99.90;;;;;;5074468;28;20039;-72
2022/03/15 02:42:01;;;;;;;22.42;5.35;;;14.10;99.90;;;;;;5074572;28;20089;-73
2022/03/15 02:44:27;;;;;;;16.50;5.65;;;14.10;99.90;;;;;;5073505;28;20492;-73
2022/03/15 02:46:53;;;;;;;14.50;4.85;;;14.10;99.90;;;;;;5051602;28;20123;-73
2022/03/15 02:49:19;;;;;;;16.58;5.03;;;14.10;99.90;;;;;;5057504;28;20119;-74
2022/03/15 02:51:45;;;;;;;20.30;5.50;;;14.10;99.90;;;;;;5079142;28;20037;-72
2022/03/15 02:54:13;;;;;;;19.48;5.43;;;14.10;99.90;;;;;;5071062;28;20037;-73
2022/03/15 02:56:43;;;;;;;25.10;5.20;;;14.10;99.90;;;;;;5076830;28;20063;-73
2022/03/15 02:59:14;;;;;;;19.80;4.88;;;14.10;99.90;;;;;;5056675;28;20040;-73
2022/03/15 03:01:45;;;;;;;14.50;4.75;;;14.10;99.90;;;;;;5040449;28;20040;-72
2022/03/15 03:04:11;;;;;;;18.45;5.78;;;14.10;99.90;;;;;;5038307;28;20054;-73
2022/03/15 03:06:38;;;;;;;14.82;4.80;;;14.00;99.90;;;;;;5056021;28;21099;-73
2022/03/15 03:09:04;;;;;;;21.92;6.00;;;14.10;99.90;;;;;;5048569;28;20029;-72
2022/03/15 03:11:31;;;;;;;27.17;6.25;;;14.10;99.90;;;;;;5043837;28;20149;-72
2022/03/15 03:13:57;;;;;;;21.73;6.03;;;14.10;99.90;;;;;;5040817;28;20037;-72
2022/03/15 03:16:24;;;;;;;22.77;6.20;;;14.00;99.90;;;;;;5076586;28;20040;-72
2022/03/15 03:18:52;;;;;;;14.73;4.72;;;14.00;99.90;;;;;;5073414;28;20410;-72
2022/03/15 03:21:18;;;;;;;18.77;5.22;;;14.00;99.90;;;;;;5057560;28;20058;-72
2022/03/15 03:23:44;;;;;;;19.38;5.50;;;14.00;99.90;;;;;;5051157;28;20045;-72
2022/03/15 03:26:10;;;;;;;16.58;5.15;;;14.00;99.90;;;;;;5052983;28;20045;-72
2022/03/15 03:28:37;;;;;;;20.55;5.50;;;14.00;99.90;;;;;;5043340;28;20484;-72
2022/03/15 03:31:04;;;;;;;21.75;5.18;;;14.00;99.90;;;;;;5047252;28;20553;-73
2022/03/15 03:33:30;;;;;;;18.95;5.35;;;14.00;99.90;;;;;;5066713;28;20459;-73
2022/03/15 03:35:57;;;;;;;24.95;5.55;;;14.00;99.90;;;;;;5052038;28;20037;-72
2022/03/15 03:38:23;;;;;;;19.00;5.38;;;14.00;99.90;;;;;;5054040;28;20119;-72
2022/03/15 03:40:49;;;;;;;25.55;6.28;;;14.00;99.90;;;;;;5054534;28;20129;-72
2022/03/15 03:43:15;;;;;;;15.57;5.80;;;14.00;99.90;;;;;;5042724;28;20037;-74
2022/03/15 03:45:41;;;;;;;18.55;5.28;;;13.90;99.90;;;;;;5075487;28;20029;-72
2022/03/15 03:48:07;;;;;;;15.90;5.88;;;13.90;99.90;;;;;;5057022;28;20086;-73
2022/03/15 03:50:35;;;;;;;22.45;5.25;;;13.90;99.90;;;;;;5043995;28;20054;-73
2022/03/15 03:53:02;;;;;;;20.73;5.72;;;13.90;99.90;;;;;;5058012;28;20040;-74
2022/03/15 03:55:29;;;;;;;22.63;6.25;;;13.90;99.90;;;;;;5063804;28;20040;-72
2022/03/15 03:57:55;;;;;;;19.73;6.07;;;13.90;99.90;;;;;;5066263;28;20062;-73
2022/03/15 04:00:21;;;;;;;19.17;5.65;;;13.90;99.90;;;;;;5050387;28;20063;-73
2022/03/15 04:02:47;;;;;;;20.02;5.45;;;13.80;99.90;;;;;;5044359;28;20040;-72
2022/03/15 04:05:15;;;;;;;22.55;6.72;;;13.80;99.90;;;;;;5045068;28;20330;-73
2022/03/15 04:07:43;;;;;;;24.23;6.72;;;13.80;99.90;;;;;;5058374;28;20040;-73
2022/03/15 04:10:09;;;;;;;23.02;6.05;;;13.80;99.90;;;;;;5038604;28;20434;-73
2022/03/15 04:12:38;;;;;;;19.45;5.70;;;13.80;99.90;;;;;;5041071;28;20033;-72
2022/03/15 04:15:05;;;;;;;18.83;5.53;;;13.80;99.90;;;;;;5061986;28;20523;-74
2022/03/15 04:17:32;;;;;;;18.73;5.63;;;13.80;99.90;;;;;;5050066;28;20040;-73
2022/03/15 04:19:57;;;;;;;23.90;6.13;;;13.80;99.90;;;;;;5040130;28;20048;-73
2022/03/15 04:22:23;;;;;;;24.67;5.57;;;13.80;99.90;;;;;;5058079;28;20385;-72
2022/03/15 04:24:49;;;;;;;26.83;6.78;;;13.80;99.90;;;;;;5058506;28;20063;-73
2022/03/15 04:27:16;;;;;;;28.45;6.53;;;13.70;99.90;;;;;;5053077;28;20076;-74
2022/03/15 04:29:42;;;;;;;25.70;7.65;;;13.70;99.90;;;;;;5055013;28;20040;-72
2022/03/15 04:32:08;;;;;;;23.45;7.22;;;13.70;99.90;;;;;;5057142;28;20047;-72
2022/03/15 04:34:34;;;;;;;26.58;7.55;;;13.60;99.90;;;;;;5048565;28;20184;-72
2022/03/15 04:37:00;;;;;;;16.45;5.68;;;13.60;99.90;;;;;;5056456;28;20135;-72
2022/03/15 04:39:26;;;;;;;25.42;6.40;;;13.60;99.90;;;;;;5055337;28;20045;-72
2022/03/15 04:41:52;;;;;;;24.85;6.68;;;13.60;99.90;;;;;;5056879;28;20040;-72
2022/03/15 04:44:18;;;;;;;20.52;6.72;;;13.70;99.90;;;;;;5054699;28;20049;-72
2022/03/15 04:46:44;;;;;;;23.70;6.40;;;13.60;99.90;;;;;;5054180;28;20033;-72
2022/03/15 04:49:10;;;;;;;19.85;6.18;;;13.70;99.90;;;;;;5043228;28;20041;-73
2022/03/15 04:51:37;;;;;;;24.05;6.38;;;13.70;99.90;;;;;;5067523;28;20139;-72
2022/03/15 04:54:03;;;;;;;19.55;5.78;;;13.70;99.90;;;;;;5039924;28;20487;-73
2022/03/15 04:56:30;;;;;;;22.10;6.93;;;13.70;99.90;;;;;;5055334;28;20040;-72
2022/03/15 04:58:56;;;;;;;24.35;6.80;;;13.70;99.90;;;;;;5067317;28;20081;-72
2022/03/15 05:01:22;;;;;;;23.92;6.80;;;13.70;99.90;;;;;;5040366;28;20041;-73
2022/03/15 05:03:47;;;;;;;18.85;7.20;;;13.60;99.90;;;;;;5052840;28;20045;-72
2022/03/15 05:06:13;;;;;;;23.98;7.15;;;13.60;99.90;;;;;;5056264;28;20044;-72
2022/03/15 05:08:39;;;;;;;26.13;6.72;;;13.60;99.90;;;;;;5061576;28;20823;-73
2022/03/15 05:11:08;;;;;;;18.73;6.60;;;13.60;99.90;;;;;;5054240;28;20381;-72
2022/03/15 05:13:40;;;;;;;27.27;8.00;;;13.70;99.90;;;;;;5050925;28;20044;-73
2022/03/15 05:16:13;;;;;;;28.33;7.75;;;13.60;99.90;;;;;;5057085;28;20060;-72
2022/03/15 05:18:40;;;;;;;27.27;7.95;;;13.60;99.90;;;;;;5056925;28;20044;-73
2022/03/15 05:21:07;;;;;;;24.33;7.55;;;13.50;99.90;;;;;;5055123;28;20040;-72
2022/03/15 05:23:33;;;;;;;25.77;7.80;;;13.50;99.90;;;;;;5057153;28;20100;-73
2022/03/15 05:25:59;;;;;;;20.17;6.78;;;13.40;99.90;;;;;;5057674;28;20866;-73
2022/03/15 05:28:25;;;;;;;21.95;7.25;;;13.40;99.90;;;;;;5054067;28;20136;-73
2022/03/15 05:30:51;;;;;;;28.92;7.40;;;13.40;99.90;;;;;;5054057;28;20059;-73
2022/03/15 05:33:17;;;;;;;23.88;7.15;;;13.40;99.90;;;;;;5070016;28;20043;-73
2022/03/15 05:35:43;;;;;;;20.40;7.80;;;13.40;99.90;;;;;;5056593;28;20036;-72
2022/03/15 05:38:10;;;;;;;22.63;6.97;;;13.40;99.90;;;;;;5053373;28;20067;-74
2022/03/15 05:40:38;;;;;;;27.35;7.30;;;13.30;99.90;;;;;;5054159;28;20499;-72
2022/03/15 05:43:04;;;;;;;25.55;7.47;;;13.30;99.90;;;;;;5052035;28;20059;-73
2022/03/15 05:45:31;;;;;;;21.38;7.93;;;13.30;99.90;;;;;;5057673;28;20025;-72
2022/03/15 05:47:57;;;;;;;27.55;7.25;;;13.30;99.90;;;;;;5053756;28;20044;-74
2022/03/15 05:50:24;;;;;;;29.75;8.10;;;13.20;99.90;;;;;;5054160;28;20040;-73
2022/03/15 05:52:49;;;;;;;22.45;7.03;;;13.20;99.90;;;;;;5055631;28;20033;-73
2022/03/15 05:55:15;;;;;;;17.30;6.40;;;13.30;99.90;;;;;;5038342;28;20381;-73
2022/03/15 05:57:42;;;;;;;18.85;6.20;;;13.30;99.90;;;;;;5055249;28;20045;-73
2022/03/15 06:00:12;;;;;;;19.13;6.07;;;13.30;99.90;;;;;;5053122;28;20025;-74
2022/03/15 06:02:39;;;;;;;23.50;6.57;;;13.30;99.90;;;;;;5043783;28;20056;-73
2022/03/15 06:05:06;;;;;;;21.23;5.72;;;13.30;99.90;;;;;;5042671;28;20045;-74
2022/03/15 06:07:33;;;;;;;19.35;6.18;;;13.30;99.90;;;;;;5020735;28;20037;-75
2022/03/15 06:10:01;;;;;;;18.05;5.78;;;13.30;99.90;;;;;;5058895;28;20112;-74
2022/03/15 06:12:27;;;;;;;21.20;6.45;;;13.30;99.90;;;;;;5069960;28;20036;-72
2022/03/15 06:14:53;;;;;;;18.50;5.55;;;13.30;99.90;;;;;;5039407;28;20033;-73
2022/03/15 06:17:19;;;;;;;16.02;6.25;;;13.40;99.90;;;;;;5056760;28;20082;-75
2022/03/15 06:19:45;;;;;;;18.52;5.65;;;13.40;99.90;;;;;;5037563;28;20044;-74
2022/03/15 06:22:11;;;;;;;19.10;5.95;;;13.40;99.90;;;;;;5051844;28;20497;-72
2022/03/15 06:24:37;;;;;;;22.85;6.25;;;13.40;99.90;;;;;;5051935;28;20131;-73
2022/03/15 06:27:03;;;;;;;19.42;6.13;;;13.40;99.90;;;;;;5051512;28;20147;-74
2022/03/15 06:29:30;;;;;;;16.70;5.80;;;13.40;99.90;;;;;;5055810;28;20028;-74
2022/03/15 06:31:56;;;;;;;18.60;5.97;;;13.50;99.90;;;;;;5051126;28;20039;-73
2022/03/15 06:34:23;;;;;;;31.77;7.13;;;13.50;99.90;;;;;;5051998;28;20040;-73
2022/03/15 06:36:50;;;;;;;19.20;7.75;;;13.50;99.90;;;;;;5048690;28;20123;-74
2022/03/15 06:39:16;;;;;;;23.85;7.20;;;13.50;99.90;;;;;;5051401;28;20396;-74
2022/03/15 06:41:43;;;;;;;19.35;6.75;;;13.50;99.90;;;;;;5051993;28;20155;-74
2022/03/15 06:44:10;;;;;;;24.10;7.65;;;13.50;99.90;;;;;;5051498;28;20126;-74
2022/03/15 06:46:36;;;;;;;25.20;7.28;;;13.50;99.90;;;;;;5043011;28;20040;-73
2022/03/15 06:49:02;;;;;;;21.05;6.65;;;13.50;99.90;;;;;;5056965;28;20148;-74
2022/03/15 06:51:28;;;;;;;22.80;7.53;;;13.50;99.90;;;;;;5054361;28;20357;-72
2022/03/15 06:53:54;;;;;;;30.48;6.97;;;13.50;99.90;;;;;;5055807;28;20037;-72
2022/03/15 06:56:22;;;;;;;20.73;6.45;;;13.50;99.90;;;;;;5051641;28;20034;-73
2022/03/15 06:58:51;;;;;;;18.63;6.78;;;13.50;99.90;;;;;;5050927;28;20048;-73
2022/03/15 07:01:16;;;;;;;21.13;6.68;;;13.50;99.90;;;;;;5056347;28;20044;-74
2022/03/15 07:03:42;;;;;;;19.98;7.03;;;13.50;99.90;;;;;;5057833;28;20051;-72
2022/03/15 07:06:09;;;;;;;18.77;6.50;;;13.50;99.90;;;;;;5051330;28;20516;-75
2022/03/15 07:08:35;;;;;;;19.52;7.20;;;13.60;99.90;;;;;;5053219;28;20031;-72
2022/03/15 07:11:02;;;;;;;22.80;6.68;;;13.60;99.90;;;;;;5055958;28;20044;-75
2022/03/15 07:13:28;;;;;;;23.45;7.60;;;13.60;99.90;;;;;;5058419;28;20051;-74
2022/03/15 07:15:54;;;;;;;22.05;7.15;;;13.60;99.90;;;;;;5059393;28;20045;-76
2022/03/15 07:18:22;;;;;;;22.95;7.63;;;13.60;99.90;;;;;;5074661;28;20128;-73
2022/03/15 07:20:48;;;;;;;21.15;7.55;;;13.60;99.90;;;;;;5062623;28;20037;-74
2022/03/15 07:23:14;;;;;;;24.08;7.57;;;13.60;99.90;;;;;;5055836;28;20047;-73
2022/03/15 07:25:39;;;;;;;24.50;8.82;;;13.60;99.90;;;;;;5050610;28;20032;-73
2022/03/15 07:28:05;;;;;;;24.63;7.78;;;13.60;99.90;;;;;;5057675;28;20060;-75
2022/03/15 07:30:31;;;;;;;26.67;8.27;;;13.70;99.90;;;;;;5056538;28;20033;-76
2022/03/15 07:32:59;;;;;;;27.27;7.85;;;13.70;99.90;;;;;;5060588;28;20040;-73
2022/03/15 07:35:25;;;;;;;32.92;8.65;;;13.70;99.90;;;;;;5060713;28;20037;-74
2022/03/15 07:37:55;;;;;;;32.70;9.25;;;13.70;99.90;;;;;;5054458;28;20040;-74
2022/03/15 07:40:23;;;;;;;26.67;8.43;;;13.70;99.90;;;;;;5057996;28;20728;-73
2022/03/15 07:42:49;;;;;;;28.50;7.63;;;13.80;99.90;;;;;;5059683;28;20040;-73
2022/03/15 07:45:16;;;;;;;32.30;8.77;;;13.70;99.90;;;;;;5071395;28;20052;-73
2022/03/15 07:47:42;;;;;;;32.67;9.02;;;13.80;99.90;;;;;;5081480;28;20527;-75
2022/03/15 07:50:08;;;;;;;27.40;8.13;;;13.80;99.90;;;;;;5061649;28;20060;-75
2022/03/15 07:52:34;;;;;;;32.75;8.05;;;13.90;99.90;;;;;;5045192;28;20032;-74
2022/03/15 07:55:00;;;;;;;25.23;8.27;;;13.90;99.90;;;;;;5060602;28;20093;-73
2022/03/15 07:57:26;;;;;;;33.70;8.10;;;13.90;99.90;;;;;;5060556;28;20128;-74
2022/03/15 07:59:52;;;;;;;35.17;8.90;;;13.90;99.90;;;;;;5077500;28;20028;-73
2022/03/15 08:02:18;;;;;;;32.58;9.70;;;13.90;99.90;;;;;;5060362;28;20036;-73
2022/03/15 08:04:44;;;;;;;36.33;9.23;;;13.90;99.90;;;;;;5078069;28;20044;-73
2022/03/15 08:07:10;;;;;;;38.78;10.65;;;14.00;99.90;;;;;;5080333;28;20139;-73
2022/03/15 08:09:38;;;;;;;35.33;8.93;;;14.00;99.90;;;;;;5063460;28;20436;-74
2022/03/15 08:12:05;;;;;;;43.17;10.48;;;14.00;99.90;;;;;;5061883;28;20045;-73
2022/03/15 08:14:31;;;;;;;44.97;9.80;;;14.10;99.90;;;;;;5058545;28;20119;-72
2022/03/15 08:16:59;;;;;;;37.58;10.43;;;14.00;99.90;;;;;;5057453;28;20141;-73
2022/03/15 08:19:26;;;;;;;45.85;10.32;;;14.00;99.90;;;;;;5064496;28;20040;-73
2022/03/15 08:21:53;;;;;;;36.55;9.40;;;14.10;99.90;;;;;;5046655;28;21107;-74
2022/03/15 08:24:21;;;;;;;44.38;10.40;;;14.10;99.90;;;;;;5054876;28;20411;-74
2022/03/15 08:26:46;;;;;;;45.15;11.02;;;14.10;99.90;;;;;;5045439;28;20131;-74
2022/03/15 08:29:12;;;;;;;47.75;11.13;;;14.10;99.90;;;;;;5054725;28;20115;-73
2022/03/15 08:31:38;;;;;;;42.10;11.25;;;14.10;99.90;;;;;;5069240;28;20037;-73
2022/03/15 08:34:05;;;;;;;53.38;12.00;;;14.20;99.90;;;;;;5055536;28;20041;-72
2022/03/15 08:36:32;;;;;;;41.92;10.88;;;14.20;99.90;;;;;;5054782;28;20037;-75
2022/03/15 08:38:58;;;;;;;46.90;11.73;;;14.20;99.90;;;;;;5042045;28;20033;-73
2022/03/15 08:41:24;;;;;;;45.25;11.02;;;14.30;99.90;;;;;;5055099;28;20427;-74
2022/03/15 08:43:51;;;;;;;39.17;10.38;;;14.20;99.90;;;;;;5056749;28;20049;-74
2022/03/15 08:46:17;;;;;;;45.88;11.95;;;14.20;99.90;;;;;;5053352;28;20125;-74
2022/03/15 08:48:42;;;;;;;47.00;11.13;;;14.30;99.90;;;;;;5041855;28;20091;-73
2022/03/15 08:51:09;;;;;;;42.08;10.40;;;14.30;99.90;;;;;;5045458;28;20040;-74
2022/03/15 08:53:35;;;;;;;48.40;11.77;;;14.50;99.90;;;;;;5038415;28;20044;-74
2022/03/15 08:56:01;;;;;;;41.25;11.27;;;14.50;99.90;;;;;;5049817;28;20446;-73
2022/03/15 08:58:27;;;;;;;40.53;10.55;;;14.50;99.90;;;;;;5062171;28;20048;-74
2022/03/15 09:00:53;;;;;;;43.20;11.23;;;14.60;99.90;;;;;;5068403;28;20045;-74
2022/03/15 09:03:20;;;;;;;42.25;10.80;;;14.60;99.90;;;;;;5058626;28;20036;-74
2022/03/15 09:05:46;;;;;;;48.90;11.43;;;14.60;99.90;;;;;;5067680;28;20040;-73
2022/03/15 09:08:12;;;;;;;52.65;11.38;;;14.60;99.90;;;;;;5062872;28;20047;-73
2022/03/15 09:10:42;;;;;;;50.58;11.45;;;14.50;99.90;;;;;;5056095;28;20032;-74
2022/03/15 09:13:09;;;;;;;45.75;10.70;;;14.50;99.90;;;;;;5025620;28;20421;-74
2022/03/15 09:15:37;;;;;;;47.70;10.82;;;14.40;99.90;;;;;;4999645;28;20033;-74
2022/03/15 09:18:03;;;;;;;55.72;11.85;;;14.40;99.90;;;;;;5057419;28;20040;-73
2022/03/15 09:20:29;;;;;;;50.97;11.18;;;14.50;99.90;;;;;;5040323;28;20051;-74
2022/03/15 09:22:55;;;;;;;46.92;12.10;;;14.50;99.90;;;;;;5031743;28;20108;-75
2022/03/15 09:25:22;;;;;;;62.75;11.82;;;14.50;99.90;;;;;;5032646;28;20036;-73
2022/03/15 09:27:49;;;;;;;57.85;12.50;;;14.50;99.90;;;;;;5043301;28;20422;-72
2022/03/15 09:30:16;;;;;;;59.80;13.45;;;14.60;99.90;;;;;;5037443;28;20060;-74
2022/03/15 09:32:42;;;;;;;50.35;12.20;;;14.70;99.90;;;;;;5059520;28;20519;-72
2022/03/15 09:35:09;;;;;;;55.70;12.82;;;14.80;99.90;;;;;;5039671;28;20056;-74
2022/03/15 09:37:35;;;;;;;63.45;14.07;;;14.90;99.90;;;;;;5035304;28;20127;-73
2022/03/15 09:40:06;;;;;;;48.03;12.38;;;15.00;99.90;;;;;;5046028;28;20052;-74
2022/03/15 09:42:35;;;;;;;54.50;11.55;;;15.00;99.90;;;;;;5039034;28;20057;-71
2022/03/15 09:45:03;;;;;;;52.83;13.02;;;15.10;99.90;;;;;;5041269;28;20147;-74
2022/03/15 09:47:33;;;;;;;49.70;11.05;;;15.00;99.90;;;;;;5037070;28;20380;-73
2022/03/15 09:50:03;;;;;;;63.97;12.52;;;15.00;99.90;;;;;;5047305;28;20361;-75
2022/03/15 09:52:29;;;;;;;55.95;12.70;;;15.00;99.90;;;;;;5057984;28;20061;-76
2022/03/15 09:54:56;;;;;;;48.08;11.77;;;15.00;99.90;;;;;;5032439;28;20051;-73
2022/03/15 09:57:22;;;;;;;57.28;12.73;;;15.10;99.90;;;;;;5048844;28;20511;-74
2022/03/15 09:59:51;;;;;;;52.67;11.70;;;15.20;99.90;;;;;;5046127;28;20044;-74
2022/03/15 10:02:18;;;;;;;56.60;13.15;;;15.20;99.90;;;;;;5020235;28;20080;-73
2022/03/15 10:04:44;;;;;;;56.75;11.13;;;15.20;99.90;;;;;;5033500;28;20532;-72
2022/03/15 10:07:11;;;;;;;46.63;11.75;;;15.10;99.90;;;;;;5043742;28;20144;-73
2022/03/15 10:09:37;;;;;;;48.30;12.52;;;15.00;99.90;;;;;;5047664;28;20127;-74
2022/03/15 10:12:04;;;;;;;50.08;11.88;;;15.00;99.90;;;;;;5051631;28;20059;-74
2022/03/15 10:14:41;;;;;;;61.38;13.07;;;15.00;99.90;;;;;;5056581;28;20046;-74
2022/03/15 10:17:07;;;;;;;62.25;12.35;;;15.00;99.90;;;;;;5059912;28;20041;-74
2022/03/15 10:19:33;;;;;;;61.28;13.00;;;15.00;99.90;;;;;;5038465;28;20340;-73
2022/03/15 10:22:00;;;;;;;60.65;12.57;;;15.10;99.90;;;;;;5039990;28;20040;-73
2022/03/15 10:24:29;;;;;;;53.47;12.05;;;15.10;99.90;;;;;;5045955;28;20098;-74
2022/03/15 10:26:59;;;;;;;51.42;12.55;;;15.00;99.90;;;;;;5029388;28;20128;-73
2022/03/15 10:29:28;;;;;;;60.58;12.95;;;15.10;99.90;;;;;;5035718;28;20071;-73
2022/03/15 10:31:54;;;;;;;49.45;12.30;;;15.20;99.90;;;;;;5059497;28;20056;-74
2022/03/15 10:34:21;;;;;;;58.80;13.20;;;15.20;99.90;;;;;;5050094;28;20083;-74
2022/03/15 10:36:49;;;;;;;68.38;12.63;;;15.20;99.90;;;;;;5046814;28;20128;-73
2022/03/15 10:39:19;;;;;;;58.20;11.63;;;15.20;99.90;;;;;;5046656;28;20068;-73
2022/03/15 10:41:49;;;;;;;62.45;13.77;;;15.20;99.90;;;;;;5042883;28;20036;-74
2022/03/15 10:44:22;;;;;;;61.63;13.10;;;15.10;99.90;;;;;;5029008;28;20389;-74
2022/03/15 10:47:02;;;;;;;62.05;13.70;;;15.20;99.90;;;;;;5045886;28;20059;-74
2022/03/15 10:49:29;;;;;;;52.42;12.82;;;15.40;99.90;;;;;;5041502;28;20539;-74
2022/03/15 10:51:55;;;;;;;57.20;12.90;;;15.50;99.90;;;;;;5034076;28;20044;-75
2022/03/15 10:54:26;;;;;;;59.45;12.02;;;15.60;99.90;;;;;;5045891;28;20052;-73
2022/03/15 10:56:59;;;;;;;53.60;13.07;;;15.80;99.90;;;;;;5053327;28;20559;-73
2022/03/15 10:59:26;;;;;;;63.40;12.98;;;15.80;99.90;;;;;;5055027;28;20045;-73
2022/03/15 11:01:52;;;;;;;56.45;12.57;;;15.80;99.90;;;;;;5046644;28;20036;-73
2022/03/15 11:04:19;;;;;;;57.90;13.20;;;15.90;99.90;;;;;;5037424;28;21507;-74
2022/03/15 11:06:50;;;;;;;63.13;13.70;;;15.90;99.90;;;;;;5048340;28;20107;-74
2022/03/15 11:09:35;;;;;;;54.30;11.18;;;15.80;99.90;;;;;;5045870;28;20044;-75
2022/03/15 11:12:06;;;;;;;48.28;12.48;;;16.10;99.90;;;;;;5049696;28;20041;-73
2022/03/15 11:14:45;;;;;;;55.10;12.93;;;16.00;99.90;;;;;;5080505;28;20047;-73
2022/03/15 11:17:15;;;;;;;53.78;11.95;;;16.10;99.90;;;;;;5061168;28;20328;-73
2022/03/15 11:19:50;;;;;;;49.72;12.13;;;16.20;99.90;;;;;;5063105;28;20045;-73
2022/03/15 11:22:20;;;;;;;50.33;10.02;;;16.10;99.90;;;;;;5060962;28;20033;-73
2022/03/15 11:25:02;;;;;;;53.00;10.98;;;16.10;99.90;;;;;;5059227;28;20076;-75
2022/03/15 11:27:35;;;;;;;44.45;10.52;;;15.90;99.90;;;;;;5060172;28;20087;-74
2022/03/15 11:30:04;;;;;;;47.42;11.32;;;15.90;99.90;;;;;;5061197;28;20468;-73
2022/03/15 11:32:32;;;;;;;46.88;11.30;;;15.70;99.90;;;;;;5057259;28;20041;-76
2022/03/15 11:34:58;;;;;;;52.20;11.88;;;15.60;99.90;;;;;;5062849;28;20043;-74
2022/03/15 11:37:25;;;;;;;44.83;10.55;;;15.60;99.90;;;;;;5052774;28;20170;-76
2022/03/15 11:39:53;;;;;;;42.92;10.95;;;15.60;99.90;;;;;;5052163;28;20235;-75
2022/03/15 11:42:19;;;;;;;59.50;12.15;;;15.60;99.90;;;;;;5035809;28;20039;-75
2022/03/15 11:45:09;;;;;;;49.63;11.15;;;15.60;99.90;;;;;;5056076;28;20877;-75
2022/03/15 11:47:47;;;;;;;42.88;10.63;;;15.50;99.90;;;;;;5051208;28;20045;-75
2022/03/15 11:50:31;;;;;;;54.85;11.30;;;15.40;99.90;;;;;;5046075;28;20053;-74
2022/03/15 11:53:33;;;;;;;48.17;11.18;;;15.40;99.90;;;;;;5040065;28;20510;-73
2022/03/15 11:56:12;;;;;;;43.67;10.80;;;15.40;99.90;;;;;;5001749;28;20049;-74
2022/03/15 11:58:38;;;;;;;54.17;11.30;;;15.60;99.90;;;;;;5055670;28;20044;-73
2022/03/15 12:01:12;;;;;;;48.72;10.60;;;15.70;99.90;;;;;;5030701;28;20036;-75
2022/03/15 12:03:57;;;;;;;43.17;11.25;;;15.80;99.90;;;;;;5030319;28;20052;-74
2022/03/15 12:06:28;;;;;;;49.28;9.82;;;15.90;99.90;;;;;;5045972;28;20037;-73
2022/03/15 12:09:00;;;;;;;42.60;10.30;;;16.10;99.90;;;;;;5043902;28;20545;-74
2022/03/15 12:11:28;;;;;;;40.30;10.70;;;16.30;99.90;;;;;;5050329;28;20049;-74
2022/03/15 12:14:07;;;;;;;45.75;10.73;;;16.30;99.90;;;;;;5036171;28;20055;-74
2022/03/15 12:16:41;;;;;;;43.88;10.60;;;16.50;99.90;;;;;;5051782;28;20046;-74
2022/03/15 12:19:35;;;;;;;37.00;9.55;;;16.40;99.90;;;;;;5050011;28;20044;-74
2022/03/15 12:22:09;;;;;;;41.25;9.38;;;16.60;99.90;;;;;;5066492;28;20074;-75
2022/03/15 12:24:40;;;;;;;44.13;9.90;;;16.60;99.90;;;;;;5020877;28;21652;-75
2022/03/15 12:27:08;;;;;;;48.00;9.90;;;16.50;99.90;;;;;;5069111;28;20463;-74
2022/03/15 12:29:36;;;;;;;41.20;10.55;;;16.30;99.90;;;;;;5047611;28;21182;-74
2022/03/15 12:32:22;;;;;;;51.40;10.98;;;16.20;99.90;;;;;;5044651;28;20042;-75
2022/03/15 12:34:52;;;;;;;40.13;10.38;;;16.20;99.90;;;;;;5048974;28;20056;-74